Gabo Island, Victoria

8:33 PM EST on August 01, 2014 (GMT +1000)
Main Wharf, Mallacoota, Vic, Australia (IVICTORI252) Elev 29 ft | 37.55 °S, 149.76 °E | Change Station

Current weather conditions updated 10 seconds ago

Clear
Clear
46.2 °F
Feels Like 45 °F
N
3.3
Wind Variable Wind from West
Gusts 18.0 mph

Tomorrow is forecast to be Cooler than today. Light rain in the morning.

Today
High -- | Low -- °F
--% Chance of Precip.
Yesterday
High -- | Low -- °F
Precip. -- in
7:00 AM 5:13 PM
Waxing Crescent, 25% visible
Pressure 29.83 in
Visibility 6.2 miles
Clouds
Windchill 45 °F
Dew Point 35 °F
Humidity 65%
Rainfall 0.01 in
Snow Depth Not available.
UV Not available.
Pollen Not available.
Air Quality Not available.
Flu Activity Not available.
METAR YMER 011000Z AUTO 25010KT 9999 // NCD 10/M02 Q1010

More Conditions Fewer Conditions

Pressure 29.83 in
Visibility 6.2 miles
Clouds
Windchill 45 °F
Dew Point 35 °F
Humidity 65%
Rainfall 0.01 in
Snow Depth Not available.
UV Not available.
Pollen Not available.
Air Quality Not available.
Flu Activity Not available.
METAR YMER 011000Z AUTO 25010KT 9999 // NCD 10/M02 Q1010

More Conditions Fewer Conditions

10-Day Weather Forecast

Almanac

Astronomy

Aug. 01, 2014 Rise Set
Actual Time 7:00 AM EST 5:13 PM EST
Civil Twilight 6:32 AM EST 5:41 PM EST
Nautical Twilight 6:01 AM EST 6:12 PM EST
Astronomical Twilight 5:30 AM EST 6:43 PM EST
Moon 9:25 AM EST 10:10 PM EST
Length of Visible Light 11h 08m
Length of Day
10h 12m
Tomorrow will be 1m 45s longer.
Waxing Crescent, 25% of the Moon is Illuminated
Today
Waxing Crescent
Aug 3
First Quarter
Aug 10
Full
Aug 17
Last Quarter
Aug 25
New

Yesterday's Extremes

Country Highs Country Lows

Community

WunderPhotos

Upload Photos

1,739,534 photos uploaded!

Nearby

Snow Depth

Not available.

Earthquake Activity

City Distance Mag. Time & Date
No recent earthquake activity has been reported nearby.
Minimum magnitude displayed is 2.5.

Coastal Water Temperatures

Place Temperature
No Stations Reporting

Nearby Weather Stations

Station Location Temp. Windchill Dew Point Humidity Wind Precip. Elev Updated Type
Main Wharf, Mallacoota, Vic, Australia, Mallacoota 46.2 °F 45 °F 35 °F 65% West  at  3.3 mph 0.00 in / hr 29 ft 8:33 PM EST Rapid Fire

Show More Stations Show Fewer Stations